sensor_id;sensor_type;location;lat;lon;timestamp;P1;durP1;ratioP1;P2;durP2;ratioP2
15595;SDS011;7898;48.658;9.068;2022-08-14T00:00:09;6.05;;;4.93;;
15595;SDS011;7898;48.658;9.068;2022-08-14T00:02:37;8.07;;;5.80;;
15595;SDS011;7898;48.658;9.068;2022-08-14T00:05:09;6.45;;;5.80;;
15595;SDS011;7898;48.658;9.068;2022-08-14T00:07:39;6.53;;;5.93;;
15595;SDS011;7898;48.658;9.068;2022-08-14T00:10:08;6.45;;;4.78;;
15595;SDS011;7898;48.658;9.068;2022-08-14T00:12:44;5.25;;;4.78;;
15595;SDS011;7898;48.658;9.068;2022-08-14T00:15:13;4.72;;;4.32;;
15595;SDS011;7898;48.658;9.068;2022-08-14T00:17:43;4.93;;;4.53;;
15595;SDS011;7898;48.658;9.068;2022-08-14T00:20:11;5.75;;;4.70;;
15595;SDS011;7898;48.658;9.068;2022-08-14T00:22:39;4.85;;;4.45;;
15595;SDS011;7898;48.658;9.068;2022-08-14T00:25:07;5.78;;;4.65;;
15595;SDS011;7898;48.658;9.068;2022-08-14T00:27:34;6.68;;;4.43;;
15595;SDS011;7898;48.658;9.068;2022-08-14T00:30:03;4.57;;;4.18;;
15595;SDS011;7898;48.658;9.068;2022-08-14T00:32:32;5.68;;;5.13;;
15595;SDS011;7898;48.658;9.068;2022-08-14T00:34:59;4.50;;;4.10;;
15595;SDS011;7898;48.658;9.068;2022-08-14T00:37:26;4.45;;;4.05;;
15595;SDS011;7898;48.658;9.068;2022-08-14T00:39:54;5.13;;;4.20;;
15595;SDS011;7898;48.658;9.068;2022-08-14T00:42:21;4.57;;;4.20;;
15595;SDS011;7898;48.658;9.068;2022-08-14T00:44:49;4.32;;;3.92;;
15595;SDS011;7898;48.658;9.068;2022-08-14T00:47:17;4.72;;;4.25;;
15595;SDS011;7898;48.658;9.068;2022-08-14T00:49:48;4.53;;;4.13;;
15595;SDS011;7898;48.658;9.068;2022-08-14T00:52:17;4.95;;;4.25;;
15595;SDS011;7898;48.658;9.068;2022-08-14T00:54:45;5.90;;;4.30;;
15595;SDS011;7898;48.658;9.068;2022-08-14T00:57:18;3.90;;;3.60;;
15595;SDS011;7898;48.658;9.068;2022-08-14T00:59:46;6.60;;;4.38;;
15595;SDS011;7898;48.658;9.068;2022-08-14T01:02:13;4.78;;;4.35;;
15595;SDS011;7898;48.658;9.068;2022-08-14T01:04:43;4.90;;;3.90;;
15595;SDS011;7898;48.658;9.068;2022-08-14T01:07:12;4.35;;;4.05;;
15595;SDS011;7898;48.658;9.068;2022-08-14T01:09:45;3.92;;;3.60;;
15595;SDS011;7898;48.658;9.068;2022-08-14T01:12:14;3.90;;;3.55;;
15595;SDS011;7898;48.658;9.068;2022-08-14T01:14:43;4.00;;;3.70;;
15595;SDS011;7898;48.658;9.068;2022-08-14T01:17:12;4.28;;;3.60;;
15595;SDS011;7898;48.658;9.068;2022-08-14T01:19:39;4.30;;;3.90;;
15595;SDS011;7898;48.658;9.068;2022-08-14T01:22:25;4.80;;;4.07;;
15595;SDS011;7898;48.658;9.068;2022-08-14T01:24:52;5.22;;;4.65;;
15595;SDS011;7898;48.658;9.068;2022-08-14T01:27:21;4.80;;;4.40;;
15595;SDS011;7898;48.658;9.068;2022-08-14T01:29:51;6.32;;;4.38;;
15595;SDS011;7898;48.658;9.068;2022-08-14T01:32:19;4.95;;;4.18;;
15595;SDS011;7898;48.658;9.068;2022-08-14T01:34:47;6.85;;;4.03;;
15595;SDS011;7898;48.658;9.068;2022-08-14T01:37:15;4.80;;;4.32;;
15595;SDS011;7898;48.658;9.068;2022-08-14T01:39:43;6.90;;;4.65;;
15595;SDS011;7898;48.658;9.068;2022-08-14T01:42:10;5.40;;;4.53;;
15595;SDS011;7898;48.658;9.068;2022-08-14T01:44:38;5.72;;;4.88;;
15595;SDS011;7898;48.658;9.068;2022-08-14T01:47:06;6.35;;;4.57;;
15595;SDS011;7898;48.658;9.068;2022-08-14T01:49:37;4.70;;;4.30;;
15595;SDS011;7898;48.658;9.068;2022-08-14T01:52:05;5.40;;;4.95;;
15595;SDS011;7898;48.658;9.068;2022-08-14T01:54:33;6.25;;;5.05;;
15595;SDS011;7898;48.658;9.068;2022-08-14T01:57:02;5.35;;;4.85;;
15595;SDS011;7898;48.658;9.068;2022-08-14T01:59:35;8.15;;;4.72;;
15595;SDS011;7898;48.658;9.068;2022-08-14T02:02:05;5.22;;;4.63;;
15595;SDS011;7898;48.658;9.068;2022-08-14T02:04:36;4.60;;;4.20;;
15595;SDS011;7898;48.658;9.068;2022-08-14T02:07:05;5.07;;;4.68;;
15595;SDS011;7898;48.658;9.068;2022-08-14T02:09:33;6.32;;;4.57;;
15595;SDS011;7898;48.658;9.068;2022-08-14T02:12:05;4.70;;;4.30;;
15595;SDS011;7898;48.658;9.068;2022-08-14T02:14:32;5.15;;;4.57;;
15595;SDS011;7898;48.658;9.068;2022-08-14T02:17:00;4.63;;;4.22;;
15595;SDS011;7898;48.658;9.068;2022-08-14T02:19:29;5.13;;;4.68;;
15595;SDS011;7898;48.658;9.068;2022-08-14T02:21:59;4.68;;;4.28;;
15595;SDS011;7898;48.658;9.068;2022-08-14T02:24:27;5.38;;;4.88;;
15595;SDS011;7898;48.658;9.068;2022-08-14T02:26:56;6.07;;;4.85;;
15595;SDS011;7898;48.658;9.068;2022-08-14T02:29:28;5.35;;;4.88;;
15595;SDS011;7898;48.658;9.068;2022-08-14T02:31:57;6.55;;;5.20;;
15595;SDS011;7898;48.658;9.068;2022-08-14T02:34:26;5.35;;;4.85;;
15595;SDS011;7898;48.658;9.068;2022-08-14T02:36:57;5.85;;;5.15;;
15595;SDS011;7898;48.658;9.068;2022-08-14T02:39:28;5.13;;;4.50;;
15595;SDS011;7898;48.658;9.068;2022-08-14T02:41:56;6.05;;;4.70;;
15595;SDS011;7898;48.658;9.068;2022-08-14T02:44:24;5.60;;;4.35;;
15595;SDS011;7898;48.658;9.068;2022-08-14T02:46:53;5.70;;;5.10;;
15595;SDS011;7898;48.658;9.068;2022-08-14T02:49:21;6.93;;;5.30;;
15595;SDS011;7898;48.658;9.068;2022-08-14T02:51:50;9.43;;;4.97;;
15595;SDS011;7898;48.658;9.068;2022-08-14T02:54:20;5.63;;;5.13;;
15595;SDS011;7898;48.658;9.068;2022-08-14T02:56:50;6.40;;;5.13;;
15595;SDS011;7898;48.658;9.068;2022-08-14T02:59:18;5.38;;;4.88;;
15595;SDS011;7898;48.658;9.068;2022-08-14T03:01:45;4.97;;;4.57;;
15595;SDS011;7898;48.658;9.068;2022-08-14T03:04:14;6.57;;;5.40;;
15595;SDS011;7898;48.658;9.068;2022-08-14T03:06:41;5.63;;;5.03;;
15595;SDS011;7898;48.658;9.068;2022-08-14T03:09:09;5.40;;;4.83;;
15595;SDS011;7898;48.658;9.068;2022-08-14T03:11:36;6.47;;;4.90;;
15595;SDS011;7898;48.658;9.068;2022-08-14T03:14:04;7.43;;;4.80;;
15595;SDS011;7898;48.658;9.068;2022-08-14T03:16:31;5.30;;;4.90;;
15595;SDS011;7898;48.658;9.068;2022-08-14T03:19:00;5.85;;;5.20;;
15595;SDS011;7898;48.658;9.068;2022-08-14T03:21:30;8.27;;;4.63;;
15595;SDS011;7898;48.658;9.068;2022-08-14T03:23:58;5.37;;;4.87;;
15595;SDS011;7898;48.658;9.068;2022-08-14T03:26:34;4.93;;;4.53;;
15595;SDS011;7898;48.658;9.068;2022-08-14T03:29:02;6.13;;;4.93;;
15595;SDS011;7898;48.658;9.068;2022-08-14T03:31:29;5.50;;;4.90;;
15595;SDS011;7898;48.658;9.068;2022-08-14T03:33:56;6.20;;;4.87;;
15595;SDS011;7898;48.658;9.068;2022-08-14T03:36:24;5.80;;;4.90;;
15595;SDS011;7898;48.658;9.068;2022-08-14T03:38:52;5.27;;;4.87;;
15595;SDS011;7898;48.658;9.068;2022-08-14T03:41:20;5.63;;;4.93;;
15595;SDS011;7898;48.658;9.068;2022-08-14T03:43:49;5.37;;;4.67;;
15595;SDS011;7898;48.658;9.068;2022-08-14T03:46:18;5.13;;;4.63;;
15595;SDS011;7898;48.658;9.068;2022-08-14T03:48:46;5.90;;;5.20;;
15595;SDS011;7898;48.658;9.068;2022-08-14T03:51:13;5.37;;;4.67;;
15595;SDS011;7898;48.658;9.068;2022-08-14T03:53:42;7.23;;;5.13;;
15595;SDS011;7898;48.658;9.068;2022-08-14T03:56:14;5.80;;;5.20;;
15595;SDS011;7898;48.658;9.068;2022-08-14T03:58:44;5.93;;;5.33;;
15595;SDS011;7898;48.658;9.068;2022-08-14T04:01:13;5.47;;;4.97;;
15595;SDS011;7898;48.658;9.068;2022-08-14T04:03:45;6.93;;;5.20;;
15595;SDS011;7898;48.658;9.068;2022-08-14T04:06:13;6.47;;;4.80;;
15595;SDS011;7898;48.658;9.068;2022-08-14T04:08:40;5.83;;;4.60;;
15595;SDS011;7898;48.658;9.068;2022-08-14T04:11:08;5.13;;;4.60;;
15595;SDS011;7898;48.658;9.068;2022-08-14T04:13:37;6.00;;;5.40;;
15595;SDS011;7898;48.658;9.068;2022-08-14T04:16:07;5.13;;;4.63;;
15595;SDS011;7898;48.658;9.068;2022-08-14T04:18:37;5.33;;;4.83;;
15595;SDS011;7898;48.658;9.068;2022-08-14T04:21:05;5.43;;;4.90;;
15595;SDS011;7898;48.658;9.068;2022-08-14T04:23:32;6.20;;;5.37;;
15595;SDS011;7898;48.658;9.068;2022-08-14T04:26:00;4.83;;;4.43;;
15595;SDS011;7898;48.658;9.068;2022-08-14T04:28:28;5.33;;;4.83;;
15595;SDS011;7898;48.658;9.068;2022-08-14T04:30:56;5.63;;;5.13;;
15595;SDS011;7898;48.658;9.068;2022-08-14T04:33:23;6.03;;;5.20;;
15595;SDS011;7898;48.658;9.068;2022-08-14T04:35:53;5.00;;;4.50;;
15595;SDS011;7898;48.658;9.068;2022-08-14T04:38:20;5.47;;;4.97;;
15595;SDS011;7898;48.658;9.068;2022-08-14T04:41:05;5.43;;;4.93;;
15595;SDS011;7898;48.658;9.068;2022-08-14T04:43:50;5.20;;;4.70;;
15595;SDS011;7898;48.658;9.068;2022-08-14T04:46:19;5.00;;;4.60;;
15595;SDS011;7898;48.658;9.068;2022-08-14T04:48:47;6.10;;;5.50;;
15595;SDS011;7898;48.658;9.068;2022-08-14T04:51:14;5.47;;;4.97;;
15595;SDS011;7898;48.658;9.068;2022-08-14T04:53:43;5.80;;;5.30;;
15595;SDS011;7898;48.658;9.068;2022-08-14T04:56:12;6.50;;;5.10;;
15595;SDS011;7898;48.658;9.068;2022-08-14T04:58:40;10.13;;;5.23;;
15595;SDS011;7898;48.658;9.068;2022-08-14T05:01:08;5.70;;;5.00;;
15595;SDS011;7898;48.658;9.068;2022-08-14T05:03:38;5.40;;;4.90;;
15595;SDS011;7898;48.658;9.068;2022-08-14T05:06:06;5.00;;;4.60;;
15595;SDS011;7898;48.658;9.068;2022-08-14T05:08:35;7.33;;;5.60;;
15595;SDS011;7898;48.658;9.068;2022-08-14T05:11:03;5.37;;;4.87;;
15595;SDS011;7898;48.658;9.068;2022-08-14T05:13:32;9.15;;;5.18;;
15595;SDS011;7898;48.658;9.068;2022-08-14T05:16:01;8.20;;;5.00;;
15595;SDS011;7898;48.658;9.068;2022-08-14T05:18:30;8.88;;;5.05;;
15595;SDS011;7898;48.658;9.068;2022-08-14T05:21:00;7.55;;;5.28;;
15595;SDS011;7898;48.658;9.068;2022-08-14T05:23:30;7.72;;;5.05;;
15595;SDS011;7898;48.658;9.068;2022-08-14T05:25:59;4.95;;;4.55;;
15595;SDS011;7898;48.658;9.068;2022-08-14T05:28:27;5.78;;;4.65;;
15595;SDS011;7898;48.658;9.068;2022-08-14T05:30:56;4.97;;;4.55;;
15595;SDS011;7898;48.658;9.068;2022-08-14T05:33:26;7.07;;;4.32;;
15595;SDS011;7898;48.658;9.068;2022-08-14T05:35:55;5.20;;;4.70;;
15595;SDS011;7898;48.658;9.068;2022-08-14T05:38:27;5.50;;;5.00;;
15595;SDS011;7898;48.658;9.068;2022-08-14T05:41:00;5.75;;;5.22;;
15595;SDS011;7898;48.658;9.068;2022-08-14T05:43:28;6.28;;;5.43;;
15595;SDS011;7898;48.658;9.068;2022-08-14T05:45:55;5.35;;;4.85;;
15595;SDS011;7898;48.658;9.068;2022-08-14T05:48:23;5.53;;;5.03;;
15595;SDS011;7898;48.658;9.068;2022-08-14T05:50:51;5.18;;;4.72;;
15595;SDS011;7898;48.658;9.068;2022-08-14T05:53:19;5.00;;;4.50;;
15595;SDS011;7898;48.658;9.068;2022-08-14T05:55:47;5.00;;;4.50;;
15595;SDS011;7898;48.658;9.068;2022-08-14T05:58:14;7.28;;;5.00;;
15595;SDS011;7898;48.658;9.068;2022-08-14T06:00:42;5.78;;;4.53;;
15595;SDS011;7898;48.658;9.068;2022-08-14T06:03:10;5.40;;;4.75;;
15595;SDS011;7898;48.658;9.068;2022-08-14T06:05:40;5.43;;;5.00;;
15595;SDS011;7898;48.658;9.068;2022-08-14T06:08:15;5.07;;;4.68;;
15595;SDS011;7898;48.658;9.068;2022-08-14T06:10:43;5.32;;;4.82;;
15595;SDS011;7898;48.658;9.068;2022-08-14T06:13:12;7.03;;;4.93;;
15595;SDS011;7898;48.658;9.068;2022-08-14T06:15:39;4.82;;;4.43;;
15595;SDS011;7898;48.658;9.068;2022-08-14T06:18:06;5.68;;;5.05;;
15595;SDS011;7898;48.658;9.068;2022-08-14T06:20:35;5.38;;;4.88;;
15595;SDS011;7898;48.658;9.068;2022-08-14T06:23:02;6.53;;;4.80;;
15595;SDS011;7898;48.658;9.068;2022-08-14T06:25:30;5.50;;;5.05;;
15595;SDS011;7898;48.658;9.068;2022-08-14T06:28:00;6.15;;;5.55;;
15595;SDS011;7898;48.658;9.068;2022-08-14T06:30:31;4.97;;;4.57;;
15595;SDS011;7898;48.658;9.068;2022-08-14T06:32:59;6.53;;;5.22;;
15595;SDS011;7898;48.658;9.068;2022-08-14T06:35:26;5.20;;;4.68;;
15595;SDS011;7898;48.658;9.068;2022-08-14T06:37:53;5.10;;;4.35;;
15595;SDS011;7898;48.658;9.068;2022-08-14T06:40:23;6.88;;;4.53;;
15595;SDS011;7898;48.658;9.068;2022-08-14T06:42:51;4.68;;;4.28;;
15595;SDS011;7898;48.658;9.068;2022-08-14T06:45:18;6.93;;;4.28;;
15595;SDS011;7898;48.658;9.068;2022-08-14T06:47:49;5.70;;;4.13;;
15595;SDS011;7898;48.658;9.068;2022-08-14T06:50:18;6.30;;;4.60;;
15595;SDS011;7898;48.658;9.068;2022-08-14T06:52:46;4.35;;;3.97;;
15595;SDS011;7898;48.658;9.068;2022-08-14T06:55:14;4.70;;;4.15;;
15595;SDS011;7898;48.658;9.068;2022-08-14T06:57:43;4.63;;;3.53;;
15595;SDS011;7898;48.658;9.068;2022-08-14T07:00:12;4.15;;;3.80;;
15595;SDS011;7898;48.658;9.068;2022-08-14T07:02:40;4.38;;;3.92;;
15595;SDS011;7898;48.658;9.068;2022-08-14T07:05:29;4.68;;;3.55;;
15595;SDS011;7898;48.658;9.068;2022-08-14T07:08:12;3.95;;;3.65;;
15595;SDS011;7898;48.658;9.068;2022-08-14T07:10:40;3.92;;;3.50;;
15595;SDS011;7898;48.658;9.068;2022-08-14T07:13:13;4.07;;;3.20;;
15595;SDS011;7898;48.658;9.068;2022-08-14T07:15:43;3.65;;;3.20;;
15595;SDS011;7898;48.658;9.068;2022-08-14T07:18:11;4.30;;;3.20;;
15595;SDS011;7898;48.658;9.068;2022-08-14T07:20:40;3.08;;;2.88;;
15595;SDS011;7898;48.658;9.068;2022-08-14T07:23:08;3.33;;;3.05;;
15595;SDS011;7898;48.658;9.068;2022-08-14T07:25:36;3.30;;;3.10;;
15595;SDS011;7898;48.658;9.068;2022-08-14T07:28:08;3.63;;;3.33;;
15595;SDS011;7898;48.658;9.068;2022-08-14T07:30:36;3.80;;;3.50;;
15595;SDS011;7898;48.658;9.068;2022-08-14T07:33:05;3.35;;;3.10;;
15595;SDS011;7898;48.658;9.068;2022-08-14T07:35:33;3.92;;;2.95;;
15595;SDS011;7898;48.658;9.068;2022-08-14T07:38:03;3.95;;;3.33;;
15595;SDS011;7898;48.658;9.068;2022-08-14T07:40:32;3.50;;;3.20;;
15595;SDS011;7898;48.658;9.068;2022-08-14T07:43:00;3.53;;;3.20;;
15595;SDS011;7898;48.658;9.068;2022-08-14T07:45:30;3.30;;;3.10;;
15595;SDS011;7898;48.658;9.068;2022-08-14T07:47:57;5.22;;;3.13;;
15595;SDS011;7898;48.658;9.068;2022-08-14T07:50:24;3.70;;;3.40;;
15595;SDS011;7898;48.658;9.068;2022-08-14T07:52:51;4.13;;;3.58;;
15595;SDS011;7898;48.658;9.068;2022-08-14T07:55:21;4.18;;;3.60;;
15595;SDS011;7898;48.658;9.068;2022-08-14T07:57:48;3.58;;;3.25;;
15595;SDS011;7898;48.658;9.068;2022-08-14T08:00:16;3.53;;;3.20;;
15595;SDS011;7898;48.658;9.068;2022-08-14T08:02:45;4.47;;;3.10;;
15595;SDS011;7898;48.658;9.068;2022-08-14T08:05:13;3.83;;;3.25;;
15595;SDS011;7898;48.658;9.068;2022-08-14T08:07:42;4.03;;;3.40;;
15595;SDS011;7898;48.658;9.068;2022-08-14T08:10:11;4.20;;;2.83;;
15595;SDS011;7898;48.658;9.068;2022-08-14T08:13:01;3.72;;;2.83;;
15595;SDS011;7898;48.658;9.068;2022-08-14T08:15:31;3.35;;;3.05;;
15595;SDS011;7898;48.658;9.068;2022-08-14T08:18:00;4.32;;;3.17;;
15595;SDS011;7898;48.658;9.068;2022-08-14T08:20:29;3.38;;;3.08;;
15595;SDS011;7898;48.658;9.068;2022-08-14T08:22:58;3.25;;;2.95;;
15595;SDS011;7898;48.658;9.068;2022-08-14T08:25:27;4.70;;;3.30;;
15595;SDS011;7898;48.658;9.068;2022-08-14T08:27:55;3.05;;;2.80;;
15595;SDS011;7898;48.658;9.068;2022-08-14T08:30:25;4.32;;;3.10;;
15595;SDS011;7898;48.658;9.068;2022-08-14T08:32:53;3.35;;;3.05;;
15595;SDS011;7898;48.658;9.068;2022-08-14T08:35:22;4.00;;;2.92;;
15595;SDS011;7898;48.658;9.068;2022-08-14T08:37:52;3.13;;;2.92;;
15595;SDS011;7898;48.658;9.068;2022-08-14T08:40:20;3.55;;;3.25;;
15595;SDS011;7898;48.658;9.068;2022-08-14T08:42:49;3.70;;;3.05;;
15595;SDS011;7898;48.658;9.068;2022-08-14T08:45:16;3.10;;;2.90;;
15595;SDS011;7898;48.658;9.068;2022-08-14T08:47:46;4.93;;;3.17;;
15595;SDS011;7898;48.658;9.068;2022-08-14T08:50:17;3.50;;;3.20;;
15595;SDS011;7898;48.658;9.068;2022-08-14T08:52:47;2.58;;;2.38;;
15595;SDS011;7898;48.658;9.068;2022-08-14T08:55:15;3.28;;;2.97;;
15595;SDS011;7898;48.658;9.068;2022-08-14T08:57:43;6.78;;;3.35;;
15595;SDS011;7898;48.658;9.068;2022-08-14T09:00:13;3.85;;;3.13;;
15595;SDS011;7898;48.658;9.068;2022-08-14T09:02:41;4.30;;;3.28;;
15595;SDS011;7898;48.658;9.068;2022-08-14T09:05:21;3.60;;;2.95;;
15595;SDS011;7898;48.658;9.068;2022-08-14T09:07:49;4.82;;;3.20;;
15595;SDS011;7898;48.658;9.068;2022-08-14T09:10:16;3.97;;;3.13;;
15595;SDS011;7898;48.658;9.068;2022-08-14T09:12:46;3.22;;;3.03;;
15595;SDS011;7898;48.658;9.068;2022-08-14T09:15:13;3.20;;;2.90;;
15595;SDS011;7898;48.658;9.068;2022-08-14T09:17:41;3.08;;;2.88;;
15595;SDS011;7898;48.658;9.068;2022-08-14T09:20:10;3.05;;;2.85;;
15595;SDS011;7898;48.658;9.068;2022-08-14T09:22:38;3.80;;;2.90;;
15595;SDS011;7898;48.658;9.068;2022-08-14T09:25:07;3.75;;;3.45;;
15595;SDS011;7898;48.658;9.068;2022-08-14T09:27:35;3.35;;;3.10;;
15595;SDS011;7898;48.658;9.068;2022-08-14T09:30:04;3.33;;;3.03;;
15595;SDS011;7898;48.658;9.068;2022-08-14T09:32:37;3.50;;;2.90;;
15595;SDS011;7898;48.658;9.068;2022-08-14T09:35:14;3.10;;;2.90;;
15595;SDS011;7898;48.658;9.068;2022-08-14T09:37:52;3.08;;;2.78;;
15595;SDS011;7898;48.658;9.068;2022-08-14T09:40:26;3.72;;;3.28;;
15595;SDS011;7898;48.658;9.068;2022-08-14T09:43:10;5.65;;;2.80;;
15595;SDS011;7898;48.658;9.068;2022-08-14T09:45:45;4.88;;;2.85;;
15595;SDS011;7898;48.658;9.068;2022-08-14T09:48:13;3.72;;;3.10;;
15595;SDS011;7898;48.658;9.068;2022-08-14T09:50:46;3.20;;;3.00;;
15595;SDS011;7898;48.658;9.068;2022-08-14T09:53:15;23.33;;;17.52;;
15595;SDS011;7898;48.658;9.068;2022-08-14T09:55:43;4.22;;;3.80;;
15595;SDS011;7898;48.658;9.068;2022-08-14T09:58:14;5.50;;;3.67;;
15595;SDS011;7898;48.658;9.068;2022-08-14T10:00:46;4.50;;;4.10;;
15595;SDS011;7898;48.658;9.068;2022-08-14T10:03:24;6.88;;;3.70;;
15595;SDS011;7898;48.658;9.068;2022-08-14T10:06:04;3.92;;;3.63;;
15595;SDS011;7898;48.658;9.068;2022-08-14T10:08:39;5.57;;;4.10;;
15595;SDS011;7898;48.658;9.068;2022-08-14T10:11:13;3.45;;;3.15;;
15595;SDS011;7898;48.658;9.068;2022-08-14T10:13:43;3.80;;;3.40;;
15595;SDS011;7898;48.658;9.068;2022-08-14T10:16:11;3.88;;;3.58;;
15595;SDS011;7898;48.658;9.068;2022-08-14T10:18:39;4.13;;;3.80;;
15595;SDS011;7898;48.658;9.068;2022-08-14T10:21:08;3.47;;;3.17;;
15595;SDS011;7898;48.658;9.068;2022-08-14T10:23:42;3.40;;;3.10;;
15595;SDS011;7898;48.658;9.068;2022-08-14T10:26:14;3.30;;;3.00;;
15595;SDS011;7898;48.658;9.068;2022-08-14T10:28:43;4.95;;;3.25;;
15595;SDS011;7898;48.658;9.068;2022-08-14T10:31:18;3.25;;;2.97;;
15595;SDS011;7898;48.658;9.068;2022-08-14T10:33:56;3.40;;;3.10;;
15595;SDS011;7898;48.658;9.068;2022-08-14T10:36:27;3.42;;;3.10;;
15595;SDS011;7898;48.658;9.068;2022-08-14T10:38:56;4.25;;;3.85;;
15595;SDS011;7898;48.658;9.068;2022-08-14T10:41:32;4.68;;;3.20;;
15595;SDS011;7898;48.658;9.068;2022-08-14T10:44:08;4.90;;;3.22;;
15595;SDS011;7898;48.658;9.068;2022-08-14T10:46:40;3.47;;;2.90;;
15595;SDS011;7898;48.658;9.068;2022-08-14T10:49:15;3.28;;;3.08;;
15595;SDS011;7898;48.658;9.068;2022-08-14T10:51:54;3.85;;;2.90;;
15595;SDS011;7898;48.658;9.068;2022-08-14T10:54:32;5.60;;;3.15;;
15595;SDS011;7898;48.658;9.068;2022-08-14T10:57:15;2.92;;;2.63;;
15595;SDS011;7898;48.658;9.068;2022-08-14T10:59:44;2.90;;;2.70;;
15595;SDS011;7898;48.658;9.068;2022-08-14T11:02:24;3.60;;;3.30;;
15595;SDS011;7898;48.658;9.068;2022-08-14T11:05:02;3.30;;;3.00;;
15595;SDS011;7898;48.658;9.068;2022-08-14T11:07:33;3.28;;;2.97;;
15595;SDS011;7898;48.658;9.068;2022-08-14T11:10:04;2.75;;;2.53;;
15595;SDS011;7898;48.658;9.068;2022-08-14T11:12:43;2.95;;;2.67;;
15595;SDS011;7898;48.658;9.068;2022-08-14T11:15:14;3.90;;;2.80;;
15595;SDS011;7898;48.658;9.068;2022-08-14T11:17:42;2.72;;;2.53;;
15595;SDS011;7898;48.658;9.068;2022-08-14T11:20:11;3.25;;;2.75;;
15595;SDS011;7898;48.658;9.068;2022-08-14T11:22:43;3.33;;;2.83;;
15595;SDS011;7898;48.658;9.068;2022-08-14T11:25:13;3.40;;;3.15;;
15595;SDS011;7898;48.658;9.068;2022-08-14T11:27:41;3.63;;;2.95;;
15595;SDS011;7898;48.658;9.068;2022-08-14T11:30:11;2.97;;;2.78;;
15595;SDS011;7898;48.658;9.068;2022-08-14T11:32:40;2.95;;;2.75;;
15595;SDS011;7898;48.658;9.068;2022-08-14T11:35:10;3.08;;;2.75;;
15595;SDS011;7898;48.658;9.068;2022-08-14T11:37:51;3.40;;;2.70;;
15595;SDS011;7898;48.658;9.068;2022-08-14T11:40:18;3.28;;;2.97;;
15595;SDS011;7898;48.658;9.068;2022-08-14T11:42:47;3.17;;;2.40;;
15595;SDS011;7898;48.658;9.068;2022-08-14T11:45:19;3.13;;;2.83;;
15595;SDS011;7898;48.658;9.068;2022-08-14T11:47:47;3.28;;;2.70;;
15595;SDS011;7898;48.658;9.068;2022-08-14T11:50:15;2.60;;;2.40;;
15595;SDS011;7898;48.658;9.068;2022-08-14T11:52:43;2.78;;;2.58;;
15595;SDS011;7898;48.658;9.068;2022-08-14T11:55:12;3.05;;;2.85;;
15595;SDS011;7898;48.658;9.068;2022-08-14T11:57:41;3.13;;;2.83;;
15595;SDS011;7898;48.658;9.068;2022-08-14T12:00:09;3.20;;;2.90;;
15595;SDS011;7898;48.658;9.068;2022-08-14T12:02:48;3.17;;;2.88;;
15595;SDS011;7898;48.658;9.068;2022-08-14T12:05:26;3.10;;;2.90;;
15595;SDS011;7898;48.658;9.068;2022-08-14T12:07:56;2.90;;;2.70;;
15595;SDS011;7898;48.658;9.068;2022-08-14T12:10:24;2.72;;;2.53;;
15595;SDS011;7898;48.658;9.068;2022-08-14T12:12:53;2.90;;;2.70;;
15595;SDS011;7898;48.658;9.068;2022-08-14T12:15:27;2.60;;;2.40;;
15595;SDS011;7898;48.658;9.068;2022-08-14T12:17:55;2.80;;;2.50;;
15595;SDS011;7898;48.658;9.068;2022-08-14T12:20:28;3.03;;;2.60;;
15595;SDS011;7898;48.658;9.068;2022-08-14T12:22:56;2.30;;;2.10;;
15595;SDS011;7898;48.658;9.068;2022-08-14T12:25:26;2.72;;;2.53;;
15595;SDS011;7898;48.658;9.068;2022-08-14T12:27:53;2.50;;;2.30;;
15595;SDS011;7898;48.658;9.068;2022-08-14T12:30:26;2.58;;;2.38;;
15595;SDS011;7898;48.658;9.068;2022-08-14T12:32:57;4.40;;;2.60;;
15595;SDS011;7898;48.658;9.068;2022-08-14T12:35:34;2.75;;;2.55;;
15595;SDS011;7898;48.658;9.068;2022-08-14T12:38:01;3.33;;;2.20;;
15595;SDS011;7898;48.658;9.068;2022-08-14T12:40:30;2.85;;;2.13;;
15595;SDS011;7898;48.658;9.068;2022-08-14T12:43:00;2.05;;;1.85;;
15595;SDS011;7898;48.658;9.068;2022-08-14T12:45:30;1.85;;;1.75;;
15595;SDS011;7898;48.658;9.068;2022-08-14T12:47:59;2.03;;;1.90;;
15595;SDS011;7898;48.658;9.068;2022-08-14T12:50:34;2.25;;;2.05;;
15595;SDS011;7898;48.658;9.068;2022-08-14T12:53:02;2.63;;;2.42;;
15595;SDS011;7898;48.658;9.068;2022-08-14T12:55:30;2.90;;;1.85;;
15595;SDS011;7898;48.658;9.068;2022-08-14T12:57:59;1.80;;;1.70;;
15595;SDS011;7898;48.658;9.068;2022-08-14T13:00:29;1.95;;;1.75;;
15595;SDS011;7898;48.658;9.068;2022-08-14T13:02:59;2.05;;;1.80;;
15595;SDS011;7898;48.658;9.068;2022-08-14T13:05:28;1.85;;;1.73;;
15595;SDS011;7898;48.658;9.068;2022-08-14T13:07:56;2.78;;;1.70;;
15595;SDS011;7898;48.658;9.068;2022-08-14T13:10:24;2.20;;;2.00;;
15595;SDS011;7898;48.658;9.068;2022-08-14T13:12:55;2.08;;;1.98;;
15595;SDS011;7898;48.658;9.068;2022-08-14T13:15:23;2.10;;;2.00;;
15595;SDS011;7898;48.658;9.068;2022-08-14T13:17:51;1.83;;;1.70;;
15595;SDS011;7898;48.658;9.068;2022-08-14T13:20:21;2.95;;;1.98;;
15595;SDS011;7898;48.658;9.068;2022-08-14T13:22:50;2.10;;;2.00;;
15595;SDS011;7898;48.658;9.068;2022-08-14T13:25:22;2.00;;;1.90;;
15595;SDS011;7898;48.658;9.068;2022-08-14T13:27:50;2.35;;;1.80;;
15595;SDS011;7898;48.658;9.068;2022-08-14T13:30:21;3.08;;;2.33;;
15595;SDS011;7898;48.658;9.068;2022-08-14T13:32:49;2.03;;;1.90;;
15595;SDS011;7898;48.658;9.068;2022-08-14T13:35:17;2.33;;;2.13;;
15595;SDS011;7898;48.658;9.068;2022-08-14T13:37:45;2.20;;;2.00;;
15595;SDS011;7898;48.658;9.068;2022-08-14T13:40:13;2.15;;;2.05;;
15595;SDS011;7898;48.658;9.068;2022-08-14T13:42:42;2.30;;;2.10;;
15595;SDS011;7898;48.658;9.068;2022-08-14T13:45:10;2.75;;;1.98;;
15595;SDS011;7898;48.658;9.068;2022-08-14T13:47:40;2.60;;;2.40;;
15595;SDS011;7898;48.658;9.068;2022-08-14T13:50:10;2.20;;;2.10;;
15595;SDS011;7898;48.658;9.068;2022-08-14T13:52:40;3.17;;;2.30;;
15595;SDS011;7898;48.658;9.068;2022-08-14T13:55:09;2.60;;;2.40;;
15595;SDS011;7898;48.658;9.068;2022-08-14T13:57:38;2.10;;;2.00;;
15595;SDS011;7898;48.658;9.068;2022-08-14T14:00:07;3.15;;;2.30;;
15595;SDS011;7898;48.658;9.068;2022-08-14T14:02:37;2.30;;;2.10;;
15595;SDS011;7898;48.658;9.068;2022-08-14T14:05:07;2.60;;;2.35;;
15595;SDS011;7898;48.658;9.068;2022-08-14T14:07:37;3.55;;;2.00;;
15595;SDS011;7898;48.658;9.068;2022-08-14T14:10:10;3.88;;;2.30;;
15595;SDS011;7898;48.658;9.068;2022-08-14T14:12:37;2.60;;;2.40;;
15595;SDS011;7898;48.658;9.068;2022-08-14T14:15:06;2.50;;;2.30;;
15595;SDS011;7898;48.658;9.068;2022-08-14T14:17:34;2.60;;;2.40;;
15595;SDS011;7898;48.658;9.068;2022-08-14T14:20:03;2.38;;;2.17;;
15595;SDS011;7898;48.658;9.068;2022-08-14T14:22:32;2.70;;;2.50;;
15595;SDS011;7898;48.658;9.068;2022-08-14T14:25:00;3.50;;;2.30;;
15595;SDS011;7898;48.658;9.068;2022-08-14T14:27:30;2.47;;;2.28;;
15595;SDS011;7898;48.658;9.068;2022-08-14T14:30:01;2.47;;;2.28;;
15595;SDS011;7898;48.658;9.068;2022-08-14T14:32:31;3.00;;;2.40;;
15595;SDS011;7898;48.658;9.068;2022-08-14T14:34:58;2.95;;;2.70;;
15595;SDS011;7898;48.658;9.068;2022-08-14T14:37:27;2.80;;;2.60;;
15595;SDS011;7898;48.658;9.068;2022-08-14T14:39:56;2.65;;;2.45;;
15595;SDS011;7898;48.658;9.068;2022-08-14T14:42:25;2.60;;;2.40;;
15595;SDS011;7898;48.658;9.068;2022-08-14T14:44:54;2.65;;;2.53;;
15595;SDS011;7898;48.658;9.068;2022-08-14T14:47:28;4.32;;;2.90;;
15595;SDS011;7898;48.658;9.068;2022-08-14T14:49:57;5.07;;;2.60;;
15595;SDS011;7898;48.658;9.068;2022-08-14T14:52:27;2.40;;;2.30;;
15595;SDS011;7898;48.658;9.068;2022-08-14T14:54:57;2.70;;;2.50;;
15595;SDS011;7898;48.658;9.068;2022-08-14T14:57:25;2.50;;;2.30;;
15595;SDS011;7898;48.658;9.068;2022-08-14T14:59:53;3.38;;;2.70;;
15595;SDS011;7898;48.658;9.068;2022-08-14T15:02:24;3.53;;;3.22;;
15595;SDS011;7898;48.658;9.068;2022-08-14T15:04:57;3.35;;;2.90;;
15595;SDS011;7898;48.658;9.068;2022-08-14T15:07:25;2.90;;;2.70;;
15595;SDS011;7898;48.658;9.068;2022-08-14T15:09:52;2.80;;;2.60;;
15595;SDS011;7898;48.658;9.068;2022-08-14T15:12:20;2.80;;;2.60;;
15595;SDS011;7898;48.658;9.068;2022-08-14T15:14:47;3.20;;;2.90;;